Terminal Aerodrome Forecast
Issued by NWS

Home | Current Version | Previous Version | Text Only | Print | Product List | Glossary On
Versions: 1 2 3 4 5 6 7 8 9 10 11 12 13
000
FTUS46 KMTR 271100
TAFSJC
TAF
KSJC 271138Z 2712/2812 VRB03KT P6SM FEW010 BKN021
     FM271600 VRB04KT P6SM FEW012 SCT016 SCT023
      TEMPO 2716/2718 BKN024
     FM271800 30006KT P6SM FEW015 FEW018 SCT025
     FM280300 30009KT P6SM SCT020
     FM280700 VRB04KT P6SM FEW012 BKN018=

USA.gov is the U.S. government's official web portal to all federal, state and local government web resources and services.